createdAt,value
2023-04-19T00:00:12.280Z,99158.84
2023-04-19T00:01:14.071Z,99165.84
2023-04-19T00:02:16.765Z,99166.94
2023-04-19T00:03:19.025Z,99164.22
2023-04-19T00:04:21.621Z,99166.94
2023-04-19T00:05:24.655Z,99157.78
2023-04-19T00:06:30.377Z,99164.22
2023-04-19T00:07:32.258Z,99161.53
2023-04-19T00:08:34.431Z,99164.22
2023-04-19T00:09:36.449Z,99168.00
2023-04-19T00:10:39.964Z,99167.19
2023-04-19T00:11:41.844Z,99168.81
2023-04-19T00:12:43.624Z,99174.19
2023-04-19T00:13:45.649Z,99169.06
2023-04-19T00:14:47.590Z,99177.94
2023-04-19T00:15:49.526Z,99179.03
2023-04-19T00:16:51.508Z,99175.53
2023-04-19T00:17:53.389Z,99172.03
2023-04-19T00:18:55.440Z,99173.66
2023-04-19T00:19:58.132Z,99172.84
2023-04-19T00:21:00.025Z,99187.38
2023-04-19T00:22:01.811Z,99184.66
2023-04-19T00:23:03.767Z,99182.78
2023-04-19T00:24:06.086Z,99184.41
2023-04-19T00:25:08.469Z,99183.88
2023-04-19T00:26:11.521Z,99183.88
2023-04-19T00:27:13.432Z,99183.59
2023-04-19T00:28:15.516Z,99179.28
2023-04-19T00:29:17.397Z,99184.66
2023-04-19T00:30:19.354Z,99181.16
2023-04-19T00:31:21.188Z,99179.56
2023-04-19T00:32:23.930Z,99183.31
2023-04-19T00:33:25.821Z,99174.44
2023-04-19T00:34:27.750Z,99180.63
2023-04-19T00:35:29.633Z,99172.81
2023-04-19T00:36:31.639Z,99173.63
2023-04-19T00:37:33.654Z,99173.63
2023-04-19T00:38:35.498Z,99170.13
2023-04-19T00:39:37.863Z,99172.81
2023-04-19T00:40:39.770Z,99169.06
2023-04-19T00:41:41.588Z,99169.56
2023-04-19T00:42:43.471Z,99164.97
2023-04-19T00:43:45.301Z,99164.75
2023-04-19T00:44:47.061Z,99172.25
2023-04-19T00:45:49.879Z,99168.75
2023-04-19T00:46:52.009Z,99168.50
2023-04-19T00:47:54.451Z,99176.00
2023-04-19T00:48:56.388Z,99173.31
2023-04-19T00:49:58.342Z,99174.41
2023-04-19T00:51:00.170Z,99171.72
2023-04-19T00:52:02.367Z,99183.28
2023-04-19T00:53:04.629Z,99178.69
2023-04-19T00:54:08.885Z,99179.78
2023-04-19T00:55:10.978Z,99184.09
2023-04-19T00:56:15.536Z,99181.66
2023-04-19T00:57:18.590Z,99177.09
2023-04-19T00:58:20.536Z,99180.31
2023-04-19T00:59:22.778Z,99183.53
2023-04-19T01:00:24.628Z,99182.72
2023-04-19T01:01:26.633Z,99178.16
2023-04-19T01:02:28.555Z,99176.28
2023-04-19T01:03:31.035Z,99181.66
2023-04-19T01:04:33.550Z,99180.84
2023-04-19T01:05:35.782Z,99173.84
2023-04-19T01:06:41.255Z,99175.47
2023-04-19T01:07:43.784Z,99167.41
2023-04-19T01:08:45.580Z,99173.59
2023-04-19T01:09:47.586Z,99171.97
2023-04-19T01:10:49.635Z,99168.47
2023-04-19T01:11:51.560Z,99170.34
2023-04-19T01:12:53.570Z,99173.31
2023-04-19T01:13:56.659Z,99167.94
2023-04-19T01:14:58.646Z,99172.22
2023-04-19T01:16:01.017Z,99170.63
2023-04-19T01:17:02.964Z,99170.88
2023-04-19T01:18:05.028Z,99160.94
2023-04-19T01:19:06.940Z,99167.13
2023-04-19T01:20:09.528Z,99160.94
2023-04-19T01:21:12.678Z,99163.88
2023-04-19T01:22:22.862Z,99162.03
2023-04-19T01:23:24.947Z,99165.22
2023-04-19T01:24:26.794Z,99164.69
2023-04-19T01:25:28.619Z,99157.69
2023-04-19T01:26:30.789Z,99163.06
2023-04-19T01:27:32.881Z,99156.88
2023-04-19T01:28:34.712Z,99169.25
2023-04-19T01:29:36.532Z,99158.75
2023-04-19T01:30:38.407Z,99160.38
2023-04-19T01:31:41.666Z,99154.19
2023-04-19T01:32:43.666Z,99161.44
2023-04-19T01:33:45.608Z,99160.63
2023-04-19T01:34:49.437Z,99157.13
2023-04-19T01:35:51.332Z,99150.66
2023-04-19T01:36:53.178Z,99155.50
2023-04-19T01:37:56.290Z,99150.13
2023-04-19T01:38:58.201Z,99152.81
2023-04-19T01:40:00.046Z,99151.75
2023-04-19T01:41:01.936Z,99149.84
2023-04-19T01:42:04.376Z,99149.84
2023-04-19T01:43:08.142Z,99150.94
2023-04-19T01:44:10.070Z,99153.63
2023-04-19T01:45:11.899Z,99150.13
2023-04-19T01:46:13.696Z,99149.31
2023-04-19T01:47:15.761Z,99148.50
2023-04-19T01:48:17.615Z,99143.94
2023-04-19T01:49:19.394Z,99146.63
2023-04-19T01:50:21.596Z,99139.63
2023-04-19T01:51:23.557Z,99143.94
2023-04-19T01:52:25.495Z,99143.13
2023-04-19T01:53:27.287Z,99137.19
2023-04-19T01:54:29.178Z,99141.50
2023-04-19T01:55:31.293Z,99138.81
2023-04-19T01:56:33.187Z,99131.81
2023-04-19T01:57:35.109Z,99127.25
2023-04-19T01:58:36.994Z,99133.44
2023-04-19T01:59:38.810Z,99138.00
2023-04-19T02:00:40.765Z,99130.75
2023-04-19T02:01:42.714Z,99127.25
2023-04-19T02:02:45.239Z,99124.03
2023-04-19T02:03:47.489Z,99122.13
2023-04-19T02:04:49.486Z,99116.75
2023-04-19T02:05:51.293Z,99119.44
2023-04-19T02:06:53.037Z,99113.53
2023-04-19T02:07:54.962Z,99121.34
2023-04-19T02:08:56.961Z,99118.63
2023-04-19T02:10:01.731Z,99115.41
2023-04-19T02:11:14.301Z,99113.00
2023-04-19T02:12:16.631Z,99113.53
2023-04-19T02:13:18.510Z,99114.59
2023-04-19T02:14:20.420Z,99111.09
2023-04-19T02:15:22.357Z,99111.09
2023-04-19T02:16:24.165Z,99107.34
2023-04-19T02:17:26.597Z,99104.09
2023-04-19T02:18:32.166Z,99099.78
2023-04-19T02:19:34.036Z,99109.22
2023-04-19T02:20:35.837Z,99104.91
2023-04-19T02:21:37.692Z,99107.59
2023-04-19T02:22:39.580Z,99102.47
2023-04-19T02:23:41.367Z,99109.72
2023-04-19T02:24:43.309Z,99103.28
2023-04-19T02:25:45.145Z,99114.03
2023-04-19T02:26:46.970Z,99107.03
2023-04-19T02:27:48.826Z,99112.16
2023-04-19T02:28:53.668Z,99111.91
2023-04-19T02:29:56.451Z,99112.97
2023-04-19T02:30:59.475Z,99101.66
2023-04-19T02:32:03.859Z,99102.72
2023-04-19T02:33:05.794Z,99100.84
2023-04-19T02:34:07.588Z,99104.59
2023-04-19T02:35:09.603Z,99106.22
2023-04-19T02:36:12.104Z,99102.47
2023-04-19T02:37:13.986Z,99098.97
2023-04-19T02:38:15.876Z,99102.72
2023-04-19T02:39:17.683Z,99100.84
2023-04-19T02:40:19.537Z,99104.59
2023-04-19T02:41:21.396Z,99100.03
2023-04-19T02:42:23.331Z,99101.91
2023-04-19T02:43:25.567Z,99096.53
2023-04-19T02:44:27.710Z,99094.94
2023-04-19T02:45:29.570Z,99102.19
2023-04-19T02:46:31.486Z,99106.75
2023-04-19T02:47:33.501Z,99096.81
2023-04-19T02:48:35.673Z,99096.81
2023-04-19T02:49:41.310Z,99091.69
2023-04-19T02:50:43.178Z,99095.19
2023-04-19T02:51:45.390Z,99100.84
2023-04-19T02:52:47.218Z,99098.94
2023-04-19T02:53:49.022Z,99096.53
2023-04-19T02:54:51.010Z,99090.06
2023-04-19T02:55:52.818Z,99093.03
2023-04-19T02:56:54.652Z,99093.84
2023-04-19T02:57:56.577Z,99093.56
2023-04-19T02:59:01.942Z,99094.38
2023-04-19T03:00:05.876Z,99097.34
2023-04-19T03:01:07.917Z,99101.09
2023-04-19T03:02:09.845Z,99093.03
2023-04-19T03:03:11.799Z,99093.03
2023-04-19T03:04:13.823Z,99101.09
2023-04-19T03:05:15.914Z,99100.28
2023-04-19T03:06:17.898Z,99091.16
2023-04-19T03:07:19.873Z,99092.22
2023-04-19T03:08:21.780Z,99097.34
2023-04-19T03:09:23.631Z,99098.66
2023-04-19T03:10:26.177Z,99088.97
2023-04-19T03:11:28.070Z,99088.16
2023-04-19T03:12:30.022Z,99090.59
2023-04-19T03:13:31.814Z,99082.78
2023-04-19T03:14:36.877Z,99090.00
2023-04-19T03:15:38.771Z,99087.66
2023-04-19T03:16:40.890Z,99080.09
2023-04-19T03:17:42.783Z,99079.50
2023-04-19T03:18:46.174Z,99084.63
2023-04-19T03:19:49.118Z,99086.28
2023-04-19T03:20:50.992Z,99084.88
2023-04-19T03:21:52.822Z,99083.00
2023-04-19T03:22:54.685Z,99086.50
2023-04-19T03:23:56.544Z,99084.63
2023-04-19T03:24:58.439Z,99083.00
2023-04-19T03:26:00.246Z,99080.31
2023-04-19T03:27:03.517Z,99079.50
2023-04-19T03:28:05.594Z,99084.06
2023-04-19T03:29:07.403Z,99078.69
2023-04-19T03:30:10.204Z,99081.38
2023-04-19T03:31:12.193Z,99081.38
2023-04-19T03:32:14.070Z,99088.66
2023-04-19T03:33:16.004Z,99080.59
2023-04-19T03:34:18.159Z,99083.28
2023-04-19T03:35:20.586Z,99084.06
2023-04-19T03:36:22.509Z,99084.88
2023-04-19T03:37:24.399Z,99081.13
2023-04-19T03:38:26.247Z,99089.47
2023-04-19T03:39:28.418Z,99084.88
2023-04-19T03:40:33.348Z,99088.72
2023-04-19T03:41:35.186Z,99080.09
2023-04-19T03:42:37.025Z,99083.81
2023-04-19T03:43:38.870Z,99080.09
2023-04-19T03:44:40.785Z,99077.41
2023-04-19T03:45:42.636Z,99078.44
2023-04-19T03:46:46.484Z,99074.94
2023-04-19T03:47:48.673Z,99079.84
2023-04-19T03:48:51.362Z,99079.25
2023-04-19T03:49:53.305Z,99072.00
2023-04-19T03:50:55.324Z,99079.25
2023-04-19T03:51:57.183Z,99080.31
2023-04-19T03:52:59.024Z,99080.59
2023-04-19T03:54:00.851Z,99074.13
2023-04-19T03:55:02.757Z,99074.94
2023-04-19T03:56:05.328Z,99068.50
2023-04-19T03:57:07.148Z,99074.94
2023-04-19T03:58:09.190Z,99070.38
2023-04-19T03:59:11.093Z,99076.81
2023-04-19T04:00:13.704Z,99077.63
2023-04-19T04:01:20.389Z,99073.66
2023-04-19T04:02:22.394Z,99079.50
2023-04-19T04:03:24.662Z,99074.13
2023-04-19T04:04:26.805Z,99074.72
2023-04-19T04:05:28.959Z,99076.56
2023-04-19T04:06:30.883Z,99082.53
2023-04-19T04:07:32.669Z,99074.72
2023-04-19T04:08:34.517Z,99079.59
2023-04-19T04:09:36.428Z,99080.41
2023-04-19T04:10:38.347Z,99078.50
2023-04-19T04:11:40.274Z,99082.00
2023-04-19T04:12:42.163Z,99082.00
2023-04-19T04:13:46.663Z,99079.31
2023-04-19T04:14:48.512Z,99085.50
2023-04-19T04:15:50.436Z,99078.78
2023-04-19T04:16:52.295Z,99081.75
2023-04-19T04:17:54.338Z,99076.91
2023-04-19T04:18:56.388Z,99075.84
2023-04-19T04:19:58.289Z,99077.72
2023-04-19T04:21:00.695Z,99079.59
2023-04-19T04:22:02.785Z,99079.34
2023-04-19T04:23:04.689Z,99088.22
2023-04-19T04:24:07.901Z,99084.44
2023-04-19T04:25:10.467Z,99091.72
2023-04-19T04:26:13.930Z,99086.91
2023-04-19T04:27:20.231Z,99086.09
2023-04-19T04:28:22.861Z,99082.31
2023-04-19T04:29:24.712Z,99079.38
2023-04-19T04:30:27.975Z,99081.78
2023-04-19T04:31:30.056Z,99085.81
2023-04-19T04:32:35.912Z,99084.75
2023-04-19T04:33:38.175Z,99082.06
2023-04-19T04:34:40.606Z,99089.31
2023-04-19T04:35:43.400Z,99091.75
2023-04-19T04:36:45.516Z,99088.25
2023-04-19T04:37:48.752Z,99089.88
2023-04-19T04:38:50.986Z,99085.28
2023-04-19T04:39:52.980Z,99089.88
2023-04-19T04:40:56.195Z,99094.44
2023-04-19T04:41:58.139Z,99093.09
2023-04-19T04:43:00.928Z,99089.06
2023-04-19T04:44:23.399Z,99088.78
2023-04-19T04:45:25.351Z,99092.56
2023-04-19T04:46:27.647Z,99093.91
2023-04-19T04:47:34.071Z,99084.75
2023-04-19T04:48:36.054Z,99089.59
2023-04-19T04:49:37.925Z,99095.25
2023-04-19T04:50:39.805Z,99093.91
2023-04-19T04:51:41.584Z,99094.97
2023-04-19T04:52:43.405Z,99099.28
2023-04-19T04:53:45.346Z,99090.41
2023-04-19T04:54:47.207Z,99099.56
2023-04-19T04:55:49.201Z,99099.28
2023-04-19T04:56:51.042Z,99101.97
2023-04-19T04:57:53.012Z,99102.78
2023-04-19T04:58:54.853Z,99101.72
2023-04-19T04:59:56.712Z,99097.13
2023-04-19T05:00:58.557Z,99100.09
2023-04-19T05:02:00.590Z,99099.28
2023-04-19T05:03:03.144Z,99097.41
2023-04-19T05:04:05.688Z,99098.75
2023-04-19T05:05:08.085Z,99100.63
2023-04-19T05:06:09.862Z,99098.22
2023-04-19T05:07:11.710Z,99100.91
2023-04-19T05:08:13.615Z,99094.44
2023-04-19T05:09:15.552Z,99097.94
2023-04-19T05:10:17.703Z,99098.75
2023-04-19T05:11:20.868Z,99088.00
2023-04-19T05:12:22.968Z,99092.56
2023-04-19T05:13:24.792Z,99099.56
2023-04-19T05:14:26.604Z,99102.78
2023-04-19T05:15:28.474Z,99097.94
2023-04-19T05:16:30.532Z,99093.38
2023-04-19T05:17:32.440Z,99096.63
2023-04-19T05:18:34.385Z,99102.25
2023-04-19T05:19:36.272Z,99103.91
2023-04-19T05:20:38.702Z,99098.53
2023-04-19T05:21:40.700Z,99102.81
2023-04-19T05:22:42.546Z,99105.78
2023-04-19T05:23:44.549Z,99098.75
2023-04-19T05:24:47.297Z,99097.72
2023-04-19T05:25:49.345Z,99104.94
2023-04-19T05:26:51.417Z,99094.19
2023-04-19T05:27:53.632Z,99099.06
2023-04-19T05:28:56.260Z,99096.38
2023-04-19T05:29:58.187Z,99097.44
2023-04-19T05:31:00.036Z,99101.22
2023-04-19T05:32:01.976Z,99099.06
2023-04-19T05:33:05.481Z,99099.06
2023-04-19T05:34:07.390Z,99095.03
2023-04-19T05:35:10.271Z,99091.25
2023-04-19T05:36:12.208Z,99097.44
2023-04-19T05:37:14.156Z,99095.56
2023-04-19T05:38:16.906Z,99092.34
2023-04-19T05:39:18.730Z,99096.63
2023-04-19T05:40:20.648Z,99094.75
2023-04-19T05:41:22.502Z,99093.16
2023-04-19T05:42:24.465Z,99100.13
2023-04-19T05:43:26.381Z,99097.44
2023-04-19T05:44:28.284Z,99097.44
2023-04-19T05:45:30.227Z,99098.25
2023-04-19T05:46:32.215Z,99105.25
2023-04-19T05:47:34.295Z,99099.88
2023-04-19T05:48:37.027Z,99098.00
2023-04-19T05:49:39.383Z,99100.94
2023-04-19T05:50:42.496Z,99095.31
2023-04-19T05:51:44.305Z,99099.88
2023-04-19T05:52:46.332Z,99098.25
2023-04-19T05:53:48.214Z,99095.31
2023-04-19T05:54:50.136Z,99093.69
2023-04-19T05:55:52.201Z,99093.69
2023-04-19T05:56:54.121Z,99098.25
2023-04-19T05:57:56.085Z,99100.69
2023-04-19T05:58:58.335Z,99096.38
2023-04-19T06:01:07.491Z,99100.69
2023-04-19T06:02:09.867Z,99099.06
2023-04-19T06:03:12.258Z,99100.94
2023-04-19T06:04:14.627Z,99098.00
2023-04-19T06:05:17.017Z,99096.91
2023-04-19T06:06:23.730Z,99098.25
2023-04-19T06:07:31.989Z,99097.72
2023-04-19T06:08:36.097Z,99098.25
2023-04-19T06:09:38.007Z,99098.53
2023-04-19T06:10:51.855Z,99099.59
2023-04-19T06:11:56.803Z,99100.69
2023-04-19T06:12:58.646Z,99099.06
2023-04-19T06:14:00.543Z,99095.84
2023-04-19T06:15:02.429Z,99090.47
2023-04-19T06:16:04.627Z,99089.38
2023-04-19T06:17:06.722Z,99101.22
2023-04-19T06:18:19.068Z,99097.47
2023-04-19T06:19:21.659Z,99092.63
2023-04-19T06:20:23.501Z,99091.00
2023-04-19T06:21:25.366Z,99095.84
2023-04-19T06:22:27.243Z,99097.47
2023-04-19T06:23:29.200Z,99103.66
2023-04-19T06:24:31.035Z,99097.47
2023-04-19T06:25:33.675Z,99096.66
2023-04-19T06:26:35.818Z,99100.16
2023-04-19T06:27:37.806Z,99090.47
2023-04-19T06:28:39.611Z,99096.66
2023-04-19T06:29:41.430Z,99100.97
2023-04-19T06:30:43.262Z,99099.88
2023-04-19T06:31:46.295Z,99101.75
2023-04-19T06:32:48.300Z,99099.06
2023-04-19T06:33:51.050Z,99092.63
2023-04-19T06:34:53.009Z,99094.50
2023-04-19T06:35:54.828Z,99096.13
2023-04-19T06:36:56.772Z,99099.88
2023-04-19T06:38:00.034Z,99100.69
2023-04-19T06:39:01.989Z,99101.75
2023-04-19T06:40:08.324Z,99096.13
2023-04-19T06:41:10.911Z,99088.84
2023-04-19T06:42:12.829Z,99099.88
2023-04-19T06:43:14.804Z,99102.31
2023-04-19T06:44:17.119Z,99102.56
2023-04-19T06:45:19.399Z,99096.13
2023-04-19T06:46:21.280Z,99092.63
2023-04-19T06:47:23.537Z,99106.06
2023-04-19T06:48:26.174Z,99104.19
2023-04-19T06:49:28.048Z,99097.72
2023-04-19T06:50:29.951Z,99097.72
2023-04-19T06:51:33.962Z,99093.72
2023-04-19T06:52:35.765Z,99093.72
2023-04-19T06:53:37.985Z,99091.59
2023-04-19T06:54:39.815Z,99095.88
2023-04-19T06:55:41.630Z,99084.28
2023-04-19T06:56:47.072Z,99091.03
2023-04-19T06:57:48.962Z,99091.03
2023-04-19T06:58:51.198Z,99085.13
2023-04-19T06:59:56.010Z,99089.97
2023-04-19T07:00:58.288Z,99085.66
2023-04-19T07:02:00.241Z,99086.47
2023-04-19T07:03:02.652Z,99089.16
2023-04-19T07:04:05.019Z,99079.22
2023-04-19T07:05:08.549Z,99081.91
2023-04-19T07:06:10.497Z,99080.81
2023-04-19T07:07:12.310Z,99075.44
2023-04-19T07:08:14.357Z,99079.22
2023-04-19T07:09:16.534Z,99075.44
2023-04-19T07:10:18.439Z,99074.63
2023-04-19T07:11:22.371Z,99080.81
2023-04-19T07:12:24.534Z,99075.97
2023-04-19T07:13:26.430Z,99074.38
2023-04-19T07:14:28.312Z,99078.94
2023-04-19T07:15:30.160Z,99077.31
2023-04-19T07:16:32.860Z,99073.56
2023-04-19T07:17:36.632Z,99073.28
2023-04-19T07:18:38.602Z,99073.28
2023-04-19T07:19:40.483Z,99074.09
2023-04-19T07:20:45.042Z,99076.78
2023-04-19T07:21:46.876Z,99080.03
2023-04-19T07:22:48.660Z,99085.66
2023-04-19T07:23:50.563Z,99081.09
2023-04-19T07:24:54.123Z,99076.53
2023-04-19T07:25:55.900Z,99076.25
2023-04-19T07:26:57.950Z,99078.41
2023-04-19T07:27:59.741Z,99075.44
2023-04-19T07:29:01.923Z,99068.19
2023-04-19T07:30:04.159Z,99079.75
2023-04-19T07:31:05.983Z,99071.69
2023-04-19T07:32:07.948Z,99073.88
2023-04-19T07:33:09.796Z,99081.94
2023-04-19T07:34:11.669Z,99066.06
2023-04-19T07:35:13.621Z,99069.78
2023-04-19T07:36:15.466Z,99068.75
2023-04-19T07:37:17.322Z,99072.25
2023-04-19T07:38:19.331Z,99070.09
2023-04-19T07:39:21.156Z,99062.56
2023-04-19T07:40:22.951Z,99062.28
2023-04-19T07:41:24.761Z,99063.91
2023-04-19T07:42:26.666Z,99066.34
2023-04-19T07:43:30.511Z,99067.13
2023-04-19T07:44:32.466Z,99070.63
2023-04-19T07:45:36.126Z,99071.44
2023-04-19T07:46:38.036Z,99063.38
2023-04-19T07:47:39.915Z,99081.41
2023-04-19T07:48:42.106Z,99073.31
2023-04-19T07:49:44.393Z,99069.28
2023-04-19T07:50:46.208Z,99069.56
2023-04-19T07:51:48.006Z,99073.59
2023-04-19T07:52:49.833Z,99067.94
2023-04-19T07:53:51.812Z,99078.97
2023-04-19T07:54:53.696Z,99075.47
2023-04-19T07:55:55.794Z,99070.09
2023-04-19T07:56:58.967Z,99070.91
2023-04-19T07:58:02.070Z,99071.72
2023-04-19T07:59:08.614Z,99068.78
2023-04-19T08:00:13.014Z,99066.91
2023-04-19T08:01:14.909Z,99076.59
2023-04-19T08:02:19.052Z,99069.59
2023-04-19T08:03:22.066Z,99069.59
2023-04-19T08:04:24.407Z,99067.72
2023-04-19T08:05:27.344Z,99058.81
2023-04-19T08:06:30.449Z,99062.88
2023-04-19T08:07:32.335Z,99066.38
2023-04-19T08:08:35.046Z,99066.38
2023-04-19T08:09:37.912Z,99059.91
2023-04-19T08:10:39.852Z,99056.41
2023-04-19T08:11:43.093Z,99064.22
2023-04-19T08:12:57.282Z,99068.53
2023-04-19T08:14:11.951Z,99056.41
2023-04-19T08:17:01.465Z,99065.56
2023-04-19T08:17:44.427Z,99062.63
2023-04-19T08:18:48.470Z,99059.09
2023-04-19T08:19:51.050Z,99058.28
2023-04-19T08:20:52.993Z,99053.72
2023-04-19T08:21:54.827Z,99055.38
2023-04-19T08:22:57.018Z,99053.19
2023-04-19T08:23:59.745Z,99048.34
2023-04-19T08:25:01.524Z,99045.91
2023-04-19T08:26:03.499Z,99046.47
2023-04-19T08:27:05.658Z,99044.84
2023-04-19T08:28:07.624Z,99042.16
2023-04-19T08:29:09.650Z,99046.72
2023-04-19T08:30:12.208Z,99052.66
2023-04-19T08:31:14.074Z,99045.44
2023-04-19T08:32:16.126Z,99043.78
2023-04-19T08:33:18.262Z,99046.47
2023-04-19T08:34:20.122Z,99045.97
2023-04-19T08:35:22.215Z,99037.91
2023-04-19T08:36:36.938Z,99043.00
2023-04-19T08:37:41.209Z,99040.03
2023-04-19T08:38:46.730Z,99041.94
2023-04-19T08:39:51.340Z,99043.81
2023-04-19T08:40:57.356Z,99038.44
2023-04-19T08:42:17.694Z,99041.69
2023-04-19T08:43:33.547Z,99046.50
2023-04-19T08:44:51.027Z,99038.97
2023-04-19T08:46:02.919Z,99040.03
2023-04-19T08:47:06.461Z,99036.53
2023-04-19T08:48:11.792Z,99039.78
2023-04-19T08:49:15.176Z,99032.50
2023-04-19T08:50:32.502Z,99038.44
2023-04-19T08:51:40.123Z,99035.75
2023-04-19T08:52:54.098Z,99032.25
2023-04-19T08:53:59.494Z,99030.91
2023-04-19T08:55:07.199Z,99036.56
2023-04-19T08:56:18.102Z,99026.84
2023-04-19T08:57:26.465Z,99031.72
2023-04-19T08:58:45.780Z,99024.97
2023-04-19T08:59:55.641Z,99016.63
2023-04-19T09:00:58.934Z,99019.06
2023-04-19T09:02:04.218Z,99013.13
2023-04-19T09:03:11.295Z,99014.78
2023-04-19T09:05:19.678Z,99021.75
2023-04-19T09:06:21.846Z,99009.38
2023-04-19T09:07:28.499Z,99011.00
2023-04-19T09:08:31.225Z,99008.53
2023-04-19T09:09:39.203Z,99009.38
2023-04-19T09:11:00.318Z,99013.69
2023-04-19T09:12:02.769Z,99008.03
2023-04-19T09:13:07.576Z,99007.22
2023-04-19T09:14:15.220Z,99012.06
2023-04-19T09:15:36.309Z,99000.25
2023-04-19T09:16:39.326Z,99006.69
2023-04-19T09:17:41.303Z,99010.44
2023-04-19T09:19:23.207Z,99000.25
2023-04-19T09:20:37.526Z,99001.03
2023-04-19T09:21:40.213Z,99005.34
2023-04-19T09:22:42.003Z,99002.38
2023-04-19T09:23:48.298Z,99003.19
2023-04-19T09:27:06.823Z,99002.38
2023-04-19T09:28:13.996Z,99001.03
2023-04-19T09:29:17.505Z,99002.63
2023-04-19T09:30:32.604Z,98998.88
2023-04-19T09:32:49.275Z,99003.97
2023-04-19T09:33:51.642Z,99000.75
2023-04-19T09:34:54.519Z,98996.44
2023-04-19T09:35:56.343Z,99002.91
2023-04-19T09:37:11.691Z,98999.13
2023-04-19T09:38:17.103Z,98995.38
2023-04-19T09:39:33.269Z,99004.53
2023-04-19T09:40:35.361Z,98997.56
2023-04-19T09:41:54.944Z,98995.38
2023-04-19T09:45:30.195Z,98987.81
2023-04-19T09:46:37.555Z,98990.00
2023-04-19T09:47:39.516Z,98983.53
2023-04-19T09:48:41.380Z,98988.38
2023-04-19T09:49:49.255Z,98987.28
2023-04-19T09:51:03.288Z,98985.44
2023-04-19T09:52:10.183Z,98984.09
2023-04-19T09:53:14.196Z,98984.31
2023-04-19T09:54:19.339Z,98983.00
2023-04-19T09:55:27.559Z,98977.91
2023-04-19T09:56:31.089Z,98981.41
2023-04-19T09:57:34.298Z,98985.97
2023-04-19T09:58:48.996Z,98982.44
2023-04-19T09:59:52.783Z,98978.44
2023-04-19T10:01:10.776Z,98973.31
2023-04-19T10:02:18.933Z,98974.66
2023-04-19T10:03:22.091Z,98973.84
2023-04-19T10:04:38.338Z,98977.91
2023-04-19T10:05:50.626Z,98969.81
2023-04-19T10:07:24.537Z,98968.19
2023-04-19T10:08:19.075Z,98971.69
2023-04-19T10:09:23.207Z,98978.16
2023-04-19T10:10:41.413Z,98975.72
2023-04-19T10:11:54.234Z,98976.53
2023-04-19T10:14:11.097Z,98975.19
2023-04-19T10:15:15.159Z,98977.88
2023-04-19T10:16:19.941Z,98973.84
2023-04-19T10:17:24.963Z,98974.38
2023-04-19T10:18:28.477Z,98974.38
2023-04-19T10:19:35.815Z,98970.34
2023-04-19T10:21:09.489Z,98970.59
2023-04-19T10:22:14.236Z,98968.44
2023-04-19T10:23:18.418Z,98973.56
2023-04-19T10:24:21.536Z,98971.69
2023-04-19T10:25:30.114Z,98973.84
2023-04-19T10:27:11.991Z,98972.50
2023-04-19T10:28:16.044Z,98970.06
2023-04-19T10:29:56.561Z,98970.59
2023-04-19T10:31:04.722Z,98970.34
2023-04-19T10:32:06.919Z,98970.59
2023-04-19T10:33:08.976Z,98970.88
2023-04-19T10:34:13.020Z,98968.19
2023-04-19T10:35:21.310Z,98962.25
2023-04-19T10:36:27.346Z,98962.81
2023-04-19T10:37:31.195Z,98959.84
2023-04-19T10:38:45.722Z,98960.66
2023-04-19T10:39:47.671Z,98961.19
2023-04-19T10:40:52.844Z,98966.56
2023-04-19T10:42:02.127Z,98955.53
2023-04-19T10:43:12.892Z,98952.31
2023-04-19T10:44:14.755Z,98955.78
2023-04-19T10:45:35.322Z,98952.81
2023-04-19T10:46:42.304Z,98954.47
2023-04-19T10:47:47.301Z,98950.94
2023-04-19T10:49:00.576Z,98952.84
2023-04-19T10:50:05.362Z,98945.31
2023-04-19T10:51:32.614Z,98950.13
2023-04-19T10:52:34.622Z,98943.16
2023-04-19T10:54:01.823Z,98943.69
2023-04-19T10:55:05.984Z,98944.47
2023-04-19T10:56:07.895Z,98945.03
2023-04-19T10:57:11.290Z,98942.63
2023-04-19T10:58:13.422Z,98936.44
2023-04-19T10:59:21.385Z,98942.06
2023-04-19T11:00:26.165Z,98944.22
2023-04-19T11:01:55.722Z,98933.97
2023-04-19T11:03:18.761Z,98933.97
2023-04-19T11:04:51.004Z,98940.44
2023-04-19T11:06:20.219Z,98934.50
2023-04-19T11:07:22.414Z,98931.84
2023-04-19T11:08:25.218Z,98932.34
2023-04-19T11:09:38.820Z,98929.94
2023-04-19T11:10:42.425Z,98928.59
2023-04-19T11:11:44.444Z,98934.25
2023-04-19T11:12:46.311Z,98927.78
2023-04-19T11:13:48.846Z,98934.25
2023-04-19T11:14:59.826Z,98927.50
2023-04-19T11:16:09.395Z,98939.91
2023-04-19T11:17:19.156Z,98929.94
2023-04-19T11:18:21.032Z,98928.88
2023-04-19T11:19:24.005Z,98931.00
2023-04-19T11:20:26.062Z,98929.69
2023-04-19T11:21:30.342Z,98920.78
2023-04-19T11:22:45.401Z,98920.22
2023-04-19T11:23:49.304Z,98918.06
2023-04-19T11:24:51.076Z,98922.66
2023-04-19T11:25:53.403Z,98918.34
2023-04-19T11:26:57.674Z,98923.72
2023-04-19T11:28:00.633Z,98925.88
2023-04-19T11:29:02.981Z,98912.97
2023-04-19T11:30:10.106Z,98920.22
2023-04-19T11:31:12.296Z,98915.91
2023-04-19T11:32:14.270Z,98920.50
2023-04-19T11:33:24.632Z,98916.72
2023-04-19T11:34:26.439Z,98915.63
2023-04-19T11:35:30.452Z,98923.72
2023-04-19T11:36:33.887Z,98912.41
2023-04-19T11:37:38.102Z,98917.00
2023-04-19T11:38:40.377Z,98912.41
2023-04-19T11:39:47.530Z,98917.28
2023-04-19T11:41:05.484Z,98909.16
2023-04-19T11:42:20.643Z,98923.19
2023-04-19T11:43:22.679Z,98914.81
2023-04-19T11:44:24.543Z,98912.94
2023-04-19T11:45:39.477Z,98912.69
2023-04-19T11:46:42.819Z,98910.25
2023-04-19T11:47:49.133Z,98917.28
2023-04-19T11:48:53.185Z,98913.22
2023-04-19T11:49:59.284Z,98912.41
2023-04-19T11:51:02.012Z,98911.59
2023-04-19T11:52:08.322Z,98904.31
2023-04-19T11:53:23.652Z,98913.50
2023-04-19T11:54:27.385Z,98909.72
2023-04-19T11:55:33.447Z,98905.94
2023-04-19T11:56:35.383Z,98902.72
2023-04-19T11:57:41.840Z,98904.84
2023-04-19T11:58:50.849Z,98902.44
2023-04-19T12:00:12.534Z,98907.28
2023-04-19T12:01:20.770Z,98890.34
2023-04-19T12:02:28.962Z,98894.63
2023-04-19T12:03:31.302Z,98895.72
2023-04-19T12:04:36.936Z,98904.06
2023-04-19T12:05:39.302Z,98896.00
2023-04-19T12:06:41.830Z,98897.88
2023-04-19T12:08:08.020Z,98895.97
2023-04-19T12:09:10.209Z,98894.63
2023-04-19T12:10:12.774Z,98897.88
2023-04-19T12:11:17.057Z,98891.41
2023-04-19T12:12:35.108Z,98888.97
2023-04-19T12:13:37.681Z,98882.25
2023-04-19T12:14:39.536Z,98891.69
2023-04-19T12:15:43.722Z,98892.78
2023-04-19T12:16:46.086Z,98885.50
2023-04-19T12:18:02.462Z,98891.13
2023-04-19T12:19:20.569Z,98893.56
2023-04-19T12:20:36.416Z,98883.31
2023-04-19T12:21:38.296Z,98889.81
2023-04-19T12:22:40.244Z,98886.59
2023-04-19T12:23:42.126Z,98885.78
2023-04-19T12:24:44.100Z,98883.88
2023-04-19T12:25:48.728Z,98881.72
2023-04-19T12:26:58.890Z,98879.28
2023-04-19T12:28:04.098Z,98876.84
2023-04-19T12:29:06.034Z,98872.56
2023-04-19T12:30:09.886Z,98869.34
2023-04-19T12:31:11.796Z,98868.50
2023-04-19T12:32:15.777Z,98866.66
2023-04-19T12:33:17.886Z,98869.59
2023-04-19T12:34:19.792Z,98863.91
2023-04-19T12:35:28.858Z,98867.97
2023-04-19T12:36:30.849Z,98868.50
2023-04-19T12:37:32.739Z,98863.41
2023-04-19T12:38:34.664Z,98873.09
2023-04-19T12:39:36.597Z,98868.50
2023-04-19T12:40:38.422Z,98862.59
2023-04-19T12:41:40.360Z,98859.63
2023-04-19T12:42:42.245Z,98862.03
2023-04-19T12:43:44.082Z,98860.41